sensor_id;sensor_type;location;lat;lon;timestamp;P1;durP1;ratioP1;P2;durP2;ratioP2
9324;SDS011;4701;51.566;6.776;2024-01-11T06:06:19;36.33;;;19.07;;
9324;SDS011;4701;51.566;6.776;2024-01-11T06:11:20;37.10;;;17.67;;
9324;SDS011;4701;51.566;6.776;2024-01-11T06:16:22;37.13;;;18.93;;
9324;SDS011;4701;51.566;6.776;2024-01-11T06:21:25;32.70;;;19.07;;
9324;SDS011;4701;51.566;6.776;2024-01-11T06:26:26;34.03;;;18.00;;
9324;SDS011;4701;51.566;6.776;2024-01-11T06:31:28;44.23;;;20.20;;
9324;SDS011;4701;51.566;6.776;2024-01-11T06:36:31;35.20;;;18.50;;
9324;SDS011;4701;51.566;6.776;2024-01-11T06:41:32;37.47;;;20.13;;
9324;SDS011;4701;51.566;6.776;2024-01-11T06:46:34;38.53;;;19.00;;
9324;SDS011;4701;51.566;6.776;2024-01-11T06:51:37;36.07;;;18.90;;
9324;SDS011;4701;51.566;6.776;2024-01-11T06:56:39;31.87;;;17.73;;
9324;SDS011;4701;51.566;6.776;2024-01-11T07:01:41;35.87;;;19.37;;
9324;SDS011;4701;51.566;6.776;2024-01-11T07:06:44;34.70;;;17.57;;
9324;SDS011;4701;51.566;6.776;2024-01-11T07:11:45;33.27;;;17.97;;
9324;SDS011;4701;51.566;6.776;2024-01-11T07:16:47;33.77;;;18.10;;
9324;SDS011;4701;51.566;6.776;2024-01-11T07:21:51;34.40;;;18.20;;
9324;SDS011;4701;51.566;6.776;2024-01-11T07:26:52;35.73;;;19.10;;
9324;SDS011;4701;51.566;6.776;2024-01-11T15:34:05;7.33;;;4.30;;
9324;SDS011;4701;51.566;6.776;2024-01-11T15:39:07;6.70;;;4.60;;
9324;SDS011;4701;51.566;6.776;2024-01-11T15:44:09;7.43;;;5.03;;
9324;SDS011;4701;51.566;6.776;2024-01-11T15:49:12;8.03;;;5.30;;
9324;SDS011;4701;51.566;6.776;2024-01-11T15:54:14;6.87;;;5.07;;
9324;SDS011;4701;51.566;6.776;2024-01-11T15:59:15;6.07;;;4.47;;
9324;SDS011;4701;51.566;6.776;2024-01-11T16:04:19;5.93;;;4.40;;
9324;SDS011;4701;51.566;6.776;2024-01-11T16:09:20;5.60;;;4.30;;
9324;SDS011;4701;51.566;6.776;2024-01-11T16:14:23;8.27;;;5.30;;
9324;SDS011;4701;51.566;6.776;2024-01-11T16:19:26;6.03;;;4.33;;
9324;SDS011;4701;51.566;6.776;2024-01-11T16:24:27;6.73;;;4.57;;
9324;SDS011;4701;51.566;6.776;2024-01-11T16:29:29;9.13;;;5.93;;
9324;SDS011;4701;51.566;6.776;2024-01-11T16:34:32;6.17;;;4.30;;
9324;SDS011;4701;51.566;6.776;2024-01-11T16:39:35;6.77;;;4.40;;
9324;SDS011;4701;51.566;6.776;2024-01-11T16:44:37;7.47;;;4.47;;
9324;SDS011;4701;51.566;6.776;2024-01-11T16:49:42;4.90;;;3.60;;
9324;SDS011;4701;51.566;6.776;2024-01-11T16:54:44;6.40;;;4.67;;
9324;SDS011;4701;51.566;6.776;2024-01-11T16:59:46;5.93;;;4.47;;
9324;SDS011;4701;51.566;6.776;2024-01-11T17:04:49;6.30;;;4.23;;
9324;SDS011;4701;51.566;6.776;2024-01-11T17:09:51;13.53;;;7.87;;
9324;SDS011;4701;51.566;6.776;2024-01-11T17:14:53;11.37;;;7.13;;
9324;SDS011;4701;51.566;6.776;2024-01-11T17:19:56;8.23;;;6.03;;
9324;SDS011;4701;51.566;6.776;2024-01-11T17:24:57;9.50;;;5.93;;
9324;SDS011;4701;51.566;6.776;2024-01-11T17:29:59;11.33;;;7.20;;
9324;SDS011;4701;51.566;6.776;2024-01-11T17:35:02;10.23;;;7.10;;
9324;SDS011;4701;51.566;6.776;2024-01-11T17:40:05;14.37;;;8.90;;
9324;SDS011;4701;51.566;6.776;2024-01-11T17:45:08;8.33;;;6.60;;
9324;SDS011;4701;51.566;6.776;2024-01-11T17:50:11;9.60;;;7.10;;
9324;SDS011;4701;51.566;6.776;2024-01-11T17:55:13;11.13;;;8.23;;
9324;SDS011;4701;51.566;6.776;2024-01-11T18:00:15;17.43;;;10.63;;
9324;SDS011;4701;51.566;6.776;2024-01-11T18:05:18;13.87;;;11.03;;
9324;SDS011;4701;51.566;6.776;2024-01-11T18:10:20;17.20;;;10.87;;
9324;SDS011;4701;51.566;6.776;2024-01-11T18:15:22;19.47;;;13.23;;
9324;SDS011;4701;51.566;6.776;2024-01-11T18:20:25;19.33;;;12.73;;
9324;SDS011;4701;51.566;6.776;2024-01-11T18:25:26;14.50;;;10.67;;
9324;SDS011;4701;51.566;6.776;2024-01-11T18:30:32;15.83;;;11.30;;
9324;SDS011;4701;51.566;6.776;2024-01-11T18:35:35;26.00;;;16.40;;
9324;SDS011;4701;51.566;6.776;2024-01-11T18:40:36;20.83;;;14.27;;
9324;SDS011;4701;51.566;6.776;2024-01-11T18:45:38;24.10;;;15.13;;
9324;SDS011;4701;51.566;6.776;2024-01-11T18:50:41;16.57;;;12.77;;
9324;SDS011;4701;51.566;6.776;2024-01-11T18:55:42;24.97;;;16.40;;
9324;SDS011;4701;51.566;6.776;2024-01-11T19:00:44;21.63;;;13.97;;
9324;SDS011;4701;51.566;6.776;2024-01-11T19:05:47;23.27;;;18.65;;
9324;SDS011;4701;51.566;6.776;2024-01-11T19:10:48;20.97;;;15.23;;
9324;SDS011;4701;51.566;6.776;2024-01-11T19:15:50;22.27;;;15.60;;
9324;SDS011;4701;51.566;6.776;2024-01-11T19:20:55;23.77;;;15.77;;
9324;SDS011;4701;51.566;6.776;2024-01-11T19:25:58;18.17;;;13.23;;
9324;SDS011;4701;51.566;6.776;2024-01-11T19:30:59;21.83;;;14.33;;
9324;SDS011;4701;51.566;6.776;2024-01-11T19:36:02;17.60;;;12.47;;
9324;SDS011;4701;51.566;6.776;2024-01-11T19:41:04;20.57;;;13.90;;
9324;SDS011;4701;51.566;6.776;2024-01-11T19:46:06;19.83;;;12.10;;
9324;SDS011;4701;51.566;6.776;2024-01-11T19:51:10;26.47;;;15.63;;
9324;SDS011;4701;51.566;6.776;2024-01-11T19:56:15;21.67;;;15.23;;
9324;SDS011;4701;51.566;6.776;2024-01-11T20:01:17;27.40;;;16.37;;
9324;SDS011;4701;51.566;6.776;2024-01-11T20:06:20;23.60;;;15.90;;
9324;SDS011;4701;51.566;6.776;2024-01-11T20:11:22;25.70;;;16.60;;
9324;SDS011;4701;51.566;6.776;2024-01-11T20:16:24;21.90;;;14.90;;
9324;SDS011;4701;51.566;6.776;2024-01-11T20:21:27;27.83;;;18.83;;
9324;SDS011;4701;51.566;6.776;2024-01-11T20:26:28;27.10;;;17.73;;
9324;SDS011;4701;51.566;6.776;2024-01-11T20:31:30;26.27;;;17.70;;
9324;SDS011;4701;51.566;6.776;2024-01-11T20:36:33;30.77;;;19.43;;
9324;SDS011;4701;51.566;6.776;2024-01-11T20:41:35;30.27;;;18.83;;
9324;SDS011;4701;51.566;6.776;2024-01-11T20:46:42;32.00;;;18.93;;
9324;SDS011;4701;51.566;6.776;2024-01-11T20:51:45;28.23;;;19.40;;
9324;SDS011;4701;51.566;6.776;2024-01-11T20:56:46;29.20;;;17.67;;
9324;SDS011;4701;51.566;6.776;2024-01-11T21:01:48;30.43;;;19.90;;
9324;SDS011;4701;51.566;6.776;2024-01-11T21:06:51;37.20;;;24.20;;
9324;SDS011;4701;51.566;6.776;2024-01-11T21:11:52;29.13;;;18.83;;
9324;SDS011;4701;51.566;6.776;2024-01-11T21:16:54;33.17;;;20.30;;
9324;SDS011;4701;51.566;6.776;2024-01-11T21:21:57;31.57;;;19.33;;
9324;SDS011;4701;51.566;6.776;2024-01-11T21:26:59;34.33;;;20.07;;
